Time;durP1;ratioP1;P1;durP2;ratioP2;P2;SDS_P1;SDS_P2;PMS_P1;PMS_P2;Temp;Humidity;BMP_temperature;BMP_pressure;BME280_temperature;BME280_humidity;BME280_pressure;Samples;Min_cycle;Max_cycle;Signal;HPM_P1;HPM_P2
2022/04/09 00:00:46;;;;;;;18.83;12.50;;;11.10;64.70;;;;;;5097992;28;20055;-69
2022/04/09 00:03:13;;;;;;;16.80;11.27;;;11.00;64.90;;;;;;5107738;27;20038;-69
2022/04/09 00:05:38;;;;;;;13.02;8.60;;;11.00;64.80;;;;;;5138573;27;20046;-68
2022/04/09 00:08:05;;;;;;;17.80;8.90;;;11.00;64.80;;;;;;5138313;27;20050;-68
2022/04/09 00:10:31;;;;;;;17.13;10.73;;;11.00;65.70;;;;;;5119717;27;20062;-68
2022/04/09 00:12:57;;;;;;;15.07;9.98;;;11.00;65.00;;;;;;5137634;27;20096;-68
2022/04/09 00:15:23;;;;;;;21.73;11.88;;;11.00;64.80;;;;;;5119306;27;20446;-68
2022/04/09 00:17:48;;;;;;;14.13;9.90;;;11.00;64.70;;;;;;5119643;27;20055;-68
2022/04/09 00:20:17;;;;;;;15.25;8.88;;;10.90;64.70;;;;;;5138023;27;20058;-69
2022/04/09 00:22:44;;;;;;;11.95;7.30;;;10.90;64.80;;;;;;5138031;27;20031;-68
2022/04/09 00:25:12;;;;;;;11.30;7.43;;;10.90;64.80;;;;;;5137466;27;20386;-68
2022/04/09 00:27:38;;;;;;;10.45;7.45;;;10.90;64.90;;;;;;5137883;27;20105;-68
2022/04/09 00:30:06;;;;;;;11.07;7.45;;;10.90;64.80;;;;;;5136965;27;20102;-68
2022/04/09 00:32:32;;;;;;;10.55;7.70;;;10.80;64.70;;;;;;5118471;27;20035;-68
2022/04/09 00:34:58;;;;;;;10.23;7.43;;;10.80;64.60;;;;;;5118253;27;20038;-68
2022/04/09 00:37:23;;;;;;;12.85;8.88;;;10.80;64.60;;;;;;5119269;27;20454;-69
2022/04/09 00:39:50;;;;;;;17.05;10.15;;;10.80;64.70;;;;;;5117824;27;20091;-69
2022/04/09 00:42:18;;;;;;;13.55;8.93;;;10.70;64.80;;;;;;5119263;27;20027;-71
2022/04/09 00:44:44;;;;;;;21.00;9.77;;;10.70;65.00;;;;;;5136629;27;20041;-71
2022/04/09 00:47:10;;;;;;;12.73;9.10;;;10.70;65.20;;;;;;5110672;27;20368;-71
2022/04/09 00:49:37;;;;;;;11.98;8.63;;;10.70;65.40;;;;;;5110318;27;20466;-71
2022/04/09 00:52:04;;;;;;;15.30;9.13;;;10.70;65.70;;;;;;5124760;27;20031;-72
2022/04/09 00:54:38;;;;;;;12.77;8.70;;;10.70;65.80;;;;;;5118483;27;20030;-71
2022/04/09 00:57:05;;;;;;;12.05;7.97;;;10.80;66.10;;;;;;5118651;27;20115;-71
2022/04/09 00:59:35;;;;;;;11.18;7.40;;;10.80;66.00;;;;;;5136993;27;20027;-71
2022/04/09 01:02:02;;;;;;;12.70;8.85;;;10.90;66.10;;;;;;5118212;27;20034;-71
2022/04/09 01:04:28;;;;;;;10.98;8.07;;;10.90;66.10;;;;;;5118004;27;20083;-71
2022/04/09 01:06:56;;;;;;;10.07;7.47;;;11.00;66.30;;;;;;5120837;27;20031;-71
2022/04/09 01:09:22;;;;;;;15.88;8.73;;;11.00;66.30;;;;;;5118148;27;20027;-71
2022/04/09 01:11:49;;;;;;;16.75;9.43;;;11.00;66.20;;;;;;5136072;27;20023;-71
2022/04/09 01:14:15;;;;;;;14.02;8.48;;;11.10;66.20;;;;;;5117781;27;20027;-71
2022/04/09 01:16:40;;;;;;;18.17;8.75;;;11.10;66.30;;;;;;5136246;27;20523;-73
2022/04/09 01:19:06;;;;;;;16.70;8.73;;;11.10;66.40;;;;;;5136463;27;20023;-71
2022/04/09 01:21:32;;;;;;;10.90;7.45;;;11.20;66.50;;;;;;5136388;27;20027;-71
2022/04/09 01:23:59;;;;;;;11.32;6.10;;;11.20;66.50;;;;;;5118012;27;20068;-70
2022/04/09 01:26:25;;;;;;;10.57;6.20;;;11.20;66.40;;;;;;5117566;27;20426;-71
2022/04/09 01:28:51;;;;;;;15.20;7.40;;;11.30;66.30;;;;;;5136716;27;20429;-71
2022/04/09 01:31:17;;;;;;;13.13;7.28;;;11.30;66.40;;;;;;5136392;27;20031;-71
2022/04/09 01:33:43;;;;;;;19.02;10.48;;;11.40;66.50;;;;;;5135361;27;20031;-71
2022/04/09 01:36:10;;;;;;;17.70;10.20;;;11.40;66.50;;;;;;5117718;27;20072;-71
2022/04/09 01:38:37;;;;;;;11.20;7.78;;;11.40;66.50;;;;;;5130824;27;20027;-71
2022/04/09 01:41:03;;;;;;;11.57;6.75;;;11.40;66.60;;;;;;5134463;27;20047;-73
2022/04/09 01:43:29;;;;;;;12.43;5.80;;;11.50;66.60;;;;;;5114254;28;20027;-71
2022/04/09 01:45:55;;;;;;;7.57;5.20;;;11.50;66.60;;;;;;5101191;27;20462;-72
2022/04/09 01:48:21;;;;;;;8.85;5.82;;;11.50;66.70;;;;;;5135993;27;20230;-71
2022/04/09 01:50:47;;;;;;;6.63;4.70;;;11.50;66.80;;;;;;5114037;28;20043;-71
2022/04/09 01:53:13;;;;;;;6.10;4.03;;;11.60;66.80;;;;;;5132073;27;20069;-71
2022/04/09 01:55:39;;;;;;;7.07;4.20;;;11.60;66.60;;;;;;5117331;27;20538;-71
2022/04/09 01:58:05;;;;;;;5.38;3.63;;;11.60;66.40;;;;;;5135981;27;20102;-71
2022/04/09 02:00:31;;;;;;;8.90;4.90;;;11.70;66.50;;;;;;5117202;27;20031;-71
2022/04/09 02:02:57;;;;;;;5.95;4.38;;;11.70;66.60;;;;;;5135545;27;20027;-72
2022/04/09 02:05:23;;;;;;;5.47;4.28;;;11.70;66.50;;;;;;5114392;27;20356;-72
2022/04/09 02:07:49;;;;;;;6.32;4.18;;;11.70;66.40;;;;;;5136111;27;20019;-71
2022/04/09 02:10:17;;;;;;;6.07;4.05;;;11.70;66.40;;;;;;5135697;27;20058;-71
2022/04/09 02:12:44;;;;;;;7.45;4.63;;;11.70;66.40;;;;;;5117090;27;20030;-72
2022/04/09 02:15:12;;;;;;;8.02;4.50;;;11.80;66.50;;;;;;5117162;27;20031;-71
2022/04/09 02:17:38;;;;;;;5.53;4.57;;;11.70;66.70;;;;;;5116559;27;20027;-71
2022/04/09 02:20:06;;;;;;;7.38;4.45;;;11.70;66.50;;;;;;5135478;27;20374;-72
2022/04/09 02:22:43;;;;;;;4.78;3.63;;;11.60;66.30;;;;;;5116223;27;20027;-71
2022/04/09 02:25:15;;;;;;;9.93;3.38;;;11.60;66.40;;;;;;5135745;27;20034;-71
2022/04/09 02:27:40;;;;;;;3.45;3.05;;;11.60;66.40;;;;;;5116752;27;20023;-71
2022/04/09 02:30:08;;;;;;;6.88;3.97;;;11.60;66.50;;;;;;5134896;27;20030;-71
2022/04/09 02:32:45;;;;;;;5.47;3.72;;;11.60;66.50;;;;;;5116153;27;20031;-71
2022/04/09 02:35:11;;;;;;;5.40;4.13;;;11.60;66.50;;;;;;5113204;28;20035;-70
2022/04/09 02:37:38;;;;;;;6.00;3.67;;;11.70;66.60;;;;;;5134668;27;20027;-71
2022/04/09 02:40:05;;;;;;;5.25;3.58;;;11.70;66.60;;;;;;5135026;27;20058;-71
2022/04/09 02:42:30;;;;;;;4.53;3.45;;;11.70;66.60;;;;;;5126990;27;20031;-71
2022/04/09 02:44:56;;;;;;;3.85;3.25;;;11.70;66.70;;;;;;5095558;28;20028;-71
2022/04/09 02:47:22;;;;;;;4.55;3.42;;;11.70;66.80;;;;;;5114155;27;20400;-71
2022/04/09 02:49:48;;;;;;;4.80;3.10;;;11.70;66.90;;;;;;5115807;27;20034;-70
2022/04/09 02:52:14;;;;;;;4.80;3.58;;;11.80;67.00;;;;;;5116560;27;20485;-70
2022/04/09 02:54:39;;;;;;;6.55;4.18;;;11.80;67.00;;;;;;5134646;27;20482;-71
2022/04/09 02:57:05;;;;;;;8.50;5.70;;;11.80;66.80;;;;;;5135160;27;20053;-71
2022/04/09 02:59:31;;;;;;;5.90;4.43;;;11.90;66.50;;;;;;5134896;27;20023;-71
2022/04/09 03:01:58;;;;;;;4.47;3.75;;;11.90;66.30;;;;;;5139823;27;20102;-71
2022/04/09 03:04:24;;;;;;;5.20;3.80;;;11.90;66.10;;;;;;5133944;27;20023;-71
2022/04/09 03:06:49;;;;;;;4.82;3.38;;;11.90;65.90;;;;;;5115066;27;20027;-71
2022/04/09 03:09:15;;;;;;;5.38;3.58;;;11.90;65.90;;;;;;5133427;27;20461;-71
2022/04/09 03:11:41;;;;;;;4.43;3.13;;;11.90;65.90;;;;;;5133944;27;20417;-70
2022/04/09 03:14:07;;;;;;;3.60;2.80;;;11.90;65.90;;;;;;5134391;27;20031;-71
2022/04/09 03:16:32;;;;;;;5.15;2.67;;;11.90;65.90;;;;;;5116201;27;20107;-72
2022/04/09 03:18:58;;;;;;;3.78;2.10;;;12.00;66.10;;;;;;5134107;27;20030;-71
2022/04/09 03:21:24;;;;;;;2.35;1.70;;;12.00;66.20;;;;;;5134137;27;20039;-71
2022/04/09 03:23:50;;;;;;;2.63;1.73;;;12.10;66.40;;;;;;5116073;27;20023;-71
2022/04/09 03:26:16;;;;;;;2.75;1.70;;;12.20;66.40;;;;;;5134001;27;20027;-71
2022/04/09 03:28:41;;;;;;;2.85;1.73;;;12.30;66.30;;;;;;5134484;27;20378;-70
2022/04/09 03:31:10;;;;;;;4.75;1.33;;;12.40;66.10;;;;;;5112132;28;20028;-71
2022/04/09 03:33:36;;;;;;;1.23;1.00;;;12.40;65.70;;;;;;5133590;27;20385;-71
2022/04/09 03:36:02;;;;;;;1.30;0.80;;;12.60;65.30;;;;;;5115698;28;20407;-71
2022/04/09 03:38:28;;;;;;;1.25;0.70;;;12.60;64.70;;;;;;5134654;27;20135;-71
2022/04/09 03:40:54;;;;;;;1.65;0.45;;;12.70;64.50;;;;;;5133980;28;20443;-71
2022/04/09 03:43:20;;;;;;;1.40;0.32;;;12.80;63.90;;;;;;5132558;28;20059;-71
2022/04/09 03:45:47;;;;;;;1.45;0.20;;;12.90;63.70;;;;;;5115621;28;20102;-71
2022/04/09 03:48:13;;;;;;;0.35;0.30;;;12.90;63.20;;;;;;5115670;28;20178;-70
2022/04/09 03:50:39;;;;;;;0.60;0.10;;;13.00;62.60;;;;;;5133824;28;20023;-71
2022/04/09 03:53:04;;;;;;;2.58;0.20;;;13.00;62.20;;;;;;5115429;28;20038;-71
2022/04/09 03:55:30;;;;;;;0.50;0.30;;;13.10;61.80;;;;;;5131331;28;20045;-71
2022/04/09 03:57:57;;;;;;;12.80;0.28;;;13.10;61.20;;;;;;5113477;28;20356;-71
2022/04/09 04:00:22;;;;;;;0.20;0.13;;;13.20;60.30;;;;;;5112694;28;20035;-71
2022/04/09 04:02:48;;;;;;;0.57;0.10;;;13.20;59.80;;;;;;5118379;28;20122;-71
2022/04/09 04:05:14;;;;;;;1.77;0.30;;;13.20;59.40;;;;;;5115746;28;20024;-70
2022/04/09 04:07:44;;;;;;;0.13;0.10;;;13.30;59.30;;;;;;5133701;28;20535;-71
2022/04/09 04:10:11;;;;;;;0.35;0.30;;;13.30;58.90;;;;;;5113982;28;20031;-71
2022/04/09 04:12:37;;;;;;;0.43;0.32;;;13.40;58.50;;;;;;5112164;28;20130;-71
2022/04/09 04:15:04;;;;;;;1.13;0.30;;;13.40;57.60;;;;;;5095113;28;20110;-71
2022/04/09 04:17:40;;;;;;;0.10;0.10;;;13.40;57.40;;;;;;5113228;28;20461;-71
2022/04/09 04:20:07;;;;;;;1.13;0.20;;;13.30;56.50;;;;;;5124807;28;20106;-70
2022/04/09 04:22:33;;;;;;;0.68;0.20;;;13.30;56.90;;;;;;5115567;28;20497;-70
2022/04/09 04:24:58;;;;;;;0.40;0.10;;;13.30;56.90;;;;;;5134046;28;20051;-71
2022/04/09 04:27:24;;;;;;;0.82;0.20;;;13.30;56.60;;;;;;5133780;28;20347;-71
2022/04/09 04:29:50;;;;;;;0.30;0.20;;;13.20;56.20;;;;;;5133509;28;20065;-71
2022/04/09 04:32:16;;;;;;;0.80;0.10;;;13.10;55.40;;;;;;5131845;28;20035;-72
2022/04/09 04:34:42;;;;;;;0.10;0.10;;;12.90;54.90;;;;;;5133927;28;20363;-70
2022/04/09 04:37:07;;;;;;;0.43;0.15;;;12.80;55.20;;;;;;5115346;28;20034;-71
2022/04/09 04:39:33;;;;;;;0.52;0.20;;;12.80;55.10;;;;;;5133477;27;20043;-71
2022/04/09 04:41:59;;;;;;;0.40;0.20;;;12.60;54.60;;;;;;5113033;28;20031;-71
2022/04/09 04:44:25;;;;;;;0.20;0.20;;;12.60;54.30;;;;;;5094612;28;20024;-73
2022/04/09 04:46:50;;;;;;;0.52;0.35;;;12.50;54.40;;;;;;5134517;27;20050;-70
2022/04/09 04:49:16;;;;;;;0.40;0.30;;;12.40;54.60;;;;;;5119104;27;20035;-71
2022/04/09 04:51:42;;;;;;;0.57;0.57;;;12.40;55.00;;;;;;5137097;27;20114;-70
2022/04/09 04:54:08;;;;;;;0.70;0.55;;;12.40;55.40;;;;;;5137433;27;20031;-71
2022/04/09 04:56:34;;;;;;;0.63;0.40;;;12.30;56.00;;;;;;5137423;27;20074;-70
2022/04/09 04:59:00;;;;;;;0.35;0.35;;;12.30;55.40;;;;;;5137162;27;20413;-71
2022/04/09 05:01:26;;;;;;;0.40;0.40;;;12.20;55.30;;;;;;5136654;27;20042;-71
2022/04/09 05:03:53;;;;;;;0.60;0.30;;;12.20;55.40;;;;;;5135928;27;20394;-71
2022/04/09 05:06:19;;;;;;;0.95;0.60;;;12.10;55.20;;;;;;5136406;27;20065;-71
2022/04/09 05:08:45;;;;;;;0.70;0.60;;;12.10;55.50;;;;;;5137184;27;20061;-71
2022/04/09 05:11:11;;;;;;;1.63;0.50;;;12.00;56.00;;;;;;5136416;27;20047;-70
2022/04/09 05:13:36;;;;;;;0.55;0.50;;;12.00;57.20;;;;;;5118632;27;20496;-70
2022/04/09 05:16:02;;;;;;;0.55;0.55;;;11.90;58.30;;;;;;5118400;27;20027;-70
2022/04/09 05:18:28;;;;;;;0.50;0.50;;;11.80;59.80;;;;;;5117795;27;20023;-70
2022/04/09 05:20:54;;;;;;;1.20;1.08;;;11.70;61.30;;;;;;5118313;27;20031;-70
2022/04/09 05:23:20;;;;;;;1.30;1.10;;;11.60;61.80;;;;;;5123829;27;20031;-71
2022/04/09 05:25:45;;;;;;;2.08;1.20;;;11.30;61.20;;;;;;5116163;28;20028;-71
2022/04/09 05:28:11;;;;;;;1.15;0.90;;;11.10;61.30;;;;;;5116165;28;20020;-71
2022/04/09 05:30:37;;;;;;;1.65;0.82;;;10.90;60.70;;;;;;5116254;28;20027;-72
2022/04/09 05:33:03;;;;;;;0.90;0.60;;;10.80;61.00;;;;;;5122305;27;20414;-74
2022/04/09 05:35:29;;;;;;;0.80;0.50;;;10.70;61.40;;;;;;5117893;27;20080;-76
2022/04/09 05:37:55;;;;;;;1.17;0.30;;;10.60;61.30;;;;;;5136091;27;20092;-76
2022/04/09 05:40:22;;;;;;;0.40;0.30;;;10.50;61.30;;;;;;5135764;27;20051;-77
2022/04/09 05:42:48;;;;;;;0.20;0.20;;;10.40;61.60;;;;;;5117867;27;20030;-76
2022/04/09 05:45:14;;;;;;;0.30;0.20;;;10.30;61.60;;;;;;5117710;27;20533;-77
2022/04/09 05:47:41;;;;;;;0.45;0.30;;;10.20;61.60;;;;;;5136114;27;20125;-77
2022/04/09 05:50:09;;;;;;;0.98;0.50;;;10.20;61.60;;;;;;5117889;27;20072;-76
2022/04/09 05:52:35;;;;;;;2.30;0.28;;;10.20;61.70;;;;;;5117758;27;20031;-76
2022/04/09 05:55:03;;;;;;;1.48;0.30;;;10.20;61.40;;;;;;5117832;27;20114;-76
2022/04/09 05:57:30;;;;;;;0.75;0.35;;;10.10;61.10;;;;;;5135061;27;20023;-76
2022/04/09 05:59:55;;;;;;;1.05;0.28;;;10.10;61.10;;;;;;5117308;27;20072;-77
2022/04/09 06:02:21;;;;;;;5.22;0.73;;;10.20;61.60;;;;;;5135628;27;20208;-76
2022/04/09 06:04:47;;;;;;;5.80;1.25;;;10.20;61.80;;;;;;5136039;27;20019;-77
2022/04/09 06:07:13;;;;;;;1.33;0.73;;;10.20;61.70;;;;;;5135522;27;20026;-77
2022/04/09 06:09:43;;;;;;;9.20;1.00;;;10.20;61.60;;;;;;5117176;27;20031;-77
2022/04/09 06:12:10;;;;;;;3.60;0.55;;;10.30;61.70;;;;;;5128651;27;20031;-77
2022/04/09 06:14:36;;;;;;;0.30;0.20;;;10.30;62.00;;;;;;5102375;28;20027;-76
2022/04/09 06:17:02;;;;;;;0.80;0.60;;;10.30;61.70;;;;;;5106094;27;20114;-77
2022/04/09 06:19:29;;;;;;;0.40;0.30;;;10.30;60.40;;;;;;5135419;27;20473;-76
2022/04/09 06:21:56;;;;;;;0.28;0.20;;;10.30;58.70;;;;;;5135442;27;20019;-76
2022/04/09 06:24:22;;;;;;;0.25;0.25;;;10.30;57.80;;;;;;5116895;27;20126;-76
2022/04/09 06:26:48;;;;;;;0.52;0.30;;;10.20;57.40;;;;;;5135327;27;20024;-76
2022/04/09 06:29:14;;;;;;;0.80;0.32;;;10.20;57.50;;;;;;5117048;27;20462;-76
2022/04/09 06:31:40;;;;;;;0.20;0.20;;;10.30;57.70;;;;;;5116894;27;20035;-76
2022/04/09 06:34:06;;;;;;;0.30;0.30;;;10.30;57.60;;;;;;5134386;27;20034;-76
2022/04/09 06:36:32;;;;;;;0.63;0.50;;;10.30;57.00;;;;;;5134200;27;20031;-76
2022/04/09 06:38:57;;;;;;;1.75;0.50;;;10.30;56.80;;;;;;5134416;27;20224;-77
2022/04/09 06:41:24;;;;;;;0.82;0.45;;;10.20;57.30;;;;;;5115360;27;20027;-76
2022/04/09 06:43:50;;;;;;;0.80;0.57;;;10.30;57.40;;;;;;5115012;27;20386;-76
2022/04/09 06:46:16;;;;;;;0.85;0.40;;;10.20;57.50;;;;;;5133611;27;20019;-77
2022/04/09 06:48:42;;;;;;;1.25;0.65;;;10.20;57.50;;;;;;5114888;27;20351;-76
2022/04/09 06:51:08;;;;;;;2.08;0.88;;;10.30;57.90;;;;;;5114812;27;20015;-76
2022/04/09 06:53:34;;;;;;;1.60;1.17;;;10.30;58.30;;;;;;5113336;27;20367;-76
2022/04/09 06:56:00;;;;;;;1.88;0.73;;;10.30;58.60;;;;;;5131805;27;20048;-76
2022/04/09 06:58:26;;;;;;;1.45;1.10;;;10.30;58.70;;;;;;5133729;27;20483;-76
2022/04/09 07:00:52;;;;;;;0.98;0.80;;;10.40;59.10;;;;;;5129035;27;20051;-77
2022/04/09 07:03:17;;;;;;;1.75;0.65;;;10.50;59.60;;;;;;5116180;27;20458;-76
2022/04/09 07:05:43;;;;;;;0.77;0.52;;;10.50;59.50;;;;;;5123302;27;20118;-76
2022/04/09 07:08:09;;;;;;;1.88;0.73;;;10.50;59.30;;;;;;5095841;28;20114;-76
2022/04/09 07:10:37;;;;;;;1.88;0.98;;;10.60;58.80;;;;;;5095701;28;20478;-76
2022/04/09 07:13:05;;;;;;;1.13;1.00;;;10.60;58.50;;;;;;5115182;28;20031;-76
2022/04/09 07:15:31;;;;;;;1.65;1.10;;;10.60;58.30;;;;;;5122529;27;20098;-76
2022/04/09 07:17:57;;;;;;;1.65;1.13;;;10.50;57.90;;;;;;5116057;27;20023;-76
2022/04/09 07:20:24;;;;;;;2.13;1.30;;;10.50;58.10;;;;;;5134064;27;20130;-76
2022/04/09 07:22:50;;;;;;;1.30;1.20;;;10.50;57.70;;;;;;5116151;27;20031;-76
2022/04/09 07:25:18;;;;;;;1.38;1.20;;;10.40;57.30;;;;;;5134100;27;20034;-76
2022/04/09 07:27:47;;;;;;;1.90;1.48;;;10.40;57.50;;;;;;5114217;28;20027;-76
2022/04/09 07:30:16;;;;;;;2.65;1.73;;;10.30;57.60;;;;;;5095286;28;20080;-76
2022/04/09 07:32:43;;;;;;;4.18;1.60;;;10.30;57.80;;;;;;5097546;27;20474;-76
2022/04/09 07:35:10;;;;;;;5.30;2.30;;;10.30;57.70;;;;;;5115986;27;20428;-76
2022/04/09 07:37:44;;;;;;;3.78;2.10;;;10.20;57.80;;;;;;5134317;27;20030;-76
2022/04/09 07:40:12;;;;;;;4.70;2.70;;;10.20;58.20;;;;;;5087786;28;20058;-76
2022/04/09 07:42:43;;;;;;;5.20;3.08;;;10.20;58.50;;;;;;5095534;28;20432;-76
2022/04/09 07:45:10;;;;;;;6.47;3.58;;;10.10;58.10;;;;;;5113693;28;20024;-76
2022/04/09 07:47:35;;;;;;;5.50;3.47;;;10.10;58.10;;;;;;5113502;28;20055;-76
2022/04/09 07:50:03;;;;;;;9.05;3.63;;;10.00;58.00;;;;;;5113084;28;20482;-76
2022/04/09 07:52:29;;;;;;;5.88;3.97;;;10.00;58.20;;;;;;5112815;28;20035;-76
2022/04/09 07:54:57;;;;;;;10.63;4.75;;;9.90;58.40;;;;;;5095006;28;20035;-76
2022/04/09 07:57:24;;;;;;;7.70;4.50;;;9.90;58.60;;;;;;5095304;28;20114;-77
2022/04/09 07:59:53;;;;;;;6.28;4.18;;;9.80;58.60;;;;;;5075095;28;20056;-76
2022/04/09 08:02:20;;;;;;;7.82;5.15;;;9.80;58.60;;;;;;5094487;28;20389;-76
2022/04/09 08:04:45;;;;;;;10.00;5.32;;;9.80;58.90;;;;;;5111407;28;20023;-76
2022/04/09 08:07:11;;;;;;;7.93;5.38;;;9.80;58.80;;;;;;5113614;28;20031;-76
2022/04/09 08:09:37;;;;;;;9.18;5.30;;;9.80;58.80;;;;;;5113516;28;20027;-76
2022/04/09 08:12:03;;;;;;;10.13;5.18;;;9.80;58.80;;;;;;5113439;28;20032;-76
2022/04/09 08:14:32;;;;;;;7.22;5.50;;;9.90;58.30;;;;;;5094982;28;20463;-76
2022/04/09 08:16:59;;;;;;;6.97;5.25;;;9.90;58.50;;;;;;5113223;28;20081;-76
2022/04/09 08:19:25;;;;;;;7.78;5.78;;;9.90;58.30;;;;;;5094738;28;20047;-76
2022/04/09 08:21:52;;;;;;;11.75;6.10;;;10.00;58.40;;;;;;5116076;28;20038;-76
2022/04/09 08:24:18;;;;;;;6.95;5.60;;;10.00;58.30;;;;;;5098647;28;20027;-75
2022/04/09 08:26:44;;;;;;;8.63;5.57;;;10.10;58.10;;;;;;5099032;28;20031;-75
2022/04/09 08:29:15;;;;;;;7.32;5.70;;;10.10;57.10;;;;;;5098454;28;20038;-75
2022/04/09 08:31:41;;;;;;;9.77;5.75;;;10.30;57.60;;;;;;5117038;28;20110;-75
2022/04/09 08:34:07;;;;;;;10.40;6.13;;;10.30;57.50;;;;;;5116590;28;20055;-74
2022/04/09 08:36:32;;;;;;;8.15;5.40;;;10.40;56.80;;;;;;5116525;28;20059;-75
2022/04/09 08:38:58;;;;;;;12.02;6.07;;;10.50;57.00;;;;;;5115519;28;20046;-75
2022/04/09 08:41:25;;;;;;;9.43;5.68;;;10.50;56.70;;;;;;5100643;28;20024;-74
2022/04/09 08:43:51;;;;;;;8.55;5.82;;;10.60;56.50;;;;;;5096146;28;20028;-73
2022/04/09 08:46:17;;;;;;;7.88;6.15;;;10.60;55.80;;;;;;5096542;28;20024;-73
2022/04/09 08:48:48;;;;;;;9.75;6.28;;;10.70;56.30;;;;;;5097976;28;20495;-72
2022/04/09 08:51:14;;;;;;;11.50;6.70;;;10.70;55.80;;;;;;5117241;28;20339;-70
2022/04/09 08:53:42;;;;;;;12.18;6.43;;;10.80;55.60;;;;;;5098367;28;20027;-71
2022/04/09 08:56:08;;;;;;;9.88;6.47;;;10.90;55.60;;;;;;5116834;28;20028;-70
2022/04/09 08:58:34;;;;;;;9.30;6.55;;;10.90;55.40;;;;;;5096772;28;20023;-71
2022/04/09 09:01:00;;;;;;;7.63;5.70;;;11.00;55.10;;;;;;5091783;28;20348;-70
2022/04/09 09:03:26;;;;;;;8.60;6.47;;;11.10;55.30;;;;;;5106339;28;20462;-70
2022/04/09 09:05:54;;;;;;;10.68;6.72;;;11.20;54.80;;;;;;5094977;28;20518;-72
2022/04/09 09:08:41;;;;;;;9.13;5.43;;;11.20;54.70;;;;;;5105058;28;20026;-70
2022/04/09 09:11:07;;;;;;;9.38;6.45;;;11.30;54.20;;;;;;5098397;28;20078;-70
2022/04/09 09:13:53;;;;;;;11.00;6.35;;;11.40;54.30;;;;;;5097969;28;20431;-70
2022/04/09 09:16:23;;;;;;;9.00;6.07;;;11.50;54.30;;;;;;5096996;28;20062;-70
2022/04/09 09:18:54;;;;;;;8.57;5.45;;;11.50;54.20;;;;;;5097943;28;20028;-71
2022/04/09 09:21:23;;;;;;;6.93;5.68;;;11.60;53.90;;;;;;5115446;28;20540;-70
2022/04/09 09:23:51;;;;;;;7.10;4.68;;;11.60;53.20;;;;;;5086738;28;20115;-70
2022/04/09 09:26:21;;;;;;;8.93;5.13;;;11.70;52.80;;;;;;5116306;28;20023;-71
2022/04/09 09:28:57;;;;;;;18.35;5.35;;;11.60;52.60;;;;;;5081076;28;20163;-69
2022/04/09 09:31:42;;;;;;;9.02;4.90;;;11.50;51.60;;;;;;5112421;28;20038;-70
2022/04/09 09:34:12;;;;;;;9.20;4.40;;;11.40;51.20;;;;;;5104103;28;20019;-71
2022/04/09 09:36:40;;;;;;;9.95;4.55;;;11.30;51.30;;;;;;5101174;28;20028;-70
2022/04/09 09:39:08;;;;;;;10.10;3.85;;;11.30;52.10;;;;;;5079060;28;20414;-70
2022/04/09 09:41:34;;;;;;;15.65;4.07;;;11.20;51.90;;;;;;5115797;28;20026;-70
2022/04/09 09:44:01;;;;;;;6.10;3.65;;;11.20;51.50;;;;;;5116069;28;20027;-70
2022/04/09 09:46:27;;;;;;;6.75;3.58;;;11.20;52.00;;;;;;5132373;27;20366;-70
2022/04/09 09:48:53;;;;;;;8.57;3.83;;;11.20;52.60;;;;;;5117572;27;20031;-70
2022/04/09 09:51:23;;;;;;;9.80;3.85;;;11.30;52.60;;;;;;5117108;27;20417;-69
2022/04/09 09:53:49;;;;;;;16.45;3.53;;;11.40;53.30;;;;;;5115619;28;20024;-70
2022/04/09 09:56:36;;;;;;;5.25;2.22;;;11.70;53.30;;;;;;5115482;28;20020;-69
2022/04/09 09:59:07;;;;;;;7.82;2.38;;;11.80;49.50;;;;;;5113749;27;20023;-70
2022/04/09 10:01:39;;;;;;;2.75;1.40;;;11.80;49.50;;;;;;5136056;27;20031;-71
2022/04/09 10:04:06;;;;;;;3.72;1.63;;;11.90;47.40;;;;;;5117116;27;20027;-69
2022/04/09 10:06:33;;;;;;;7.85;1.70;;;12.00;46.00;;;;;;5135651;27;20049;-72
2022/04/09 10:09:01;;;;;;;3.53;1.40;;;12.00;44.80;;;;;;5117503;27;20033;-69
2022/04/09 10:11:30;;;;;;;5.53;1.70;;;12.00;44.80;;;;;;5116289;27;20027;-70
2022/04/09 10:13:57;;;;;;;3.63;1.80;;;12.00;44.60;;;;;;5135298;27;20382;-69
2022/04/09 10:16:27;;;;;;;3.80;1.80;;;12.10;44.80;;;;;;5135407;27;20023;-71
2022/04/09 10:18:58;;;;;;;5.68;1.92;;;12.20;44.90;;;;;;5116851;27;20031;-71
2022/04/09 10:21:25;;;;;;;4.13;1.67;;;12.20;45.20;;;;;;5117280;27;20031;-71
2022/04/09 10:23:54;;;;;;;3.90;1.67;;;12.30;44.30;;;;;;5135326;27;20072;-71
2022/04/09 10:26:20;;;;;;;4.60;1.90;;;12.30;43.50;;;;;;5135482;27;20049;-70
2022/04/09 10:28:49;;;;;;;5.05;1.40;;;12.40;44.00;;;;;;5113457;28;20467;-71
2022/04/09 10:31:28;;;;;;;3.33;1.65;;;12.40;44.70;;;;;;5113448;28;20073;-70
2022/04/09 10:33:59;;;;;;;3.20;1.20;;;12.50;43.30;;;;;;5112077;27;20489;-70
2022/04/09 10:36:46;;;;;;;8.32;1.80;;;12.50;43.70;;;;;;5116689;27;20031;-70
2022/04/09 10:39:29;;;;;;;3.58;1.77;;;12.60;43.30;;;;;;5135119;27;20051;-70
2022/04/09 10:41:56;;;;;;;2.42;1.67;;;12.80;43.20;;;;;;5135286;27;20148;-71
2022/04/09 10:44:43;;;;;;;8.85;1.73;;;12.90;43.10;;;;;;5116096;27;20019;-71
2022/04/09 10:47:14;;;;;;;5.20;1.80;;;13.10;41.10;;;;;;5134605;27;20462;-71
2022/04/09 10:49:41;;;;;;;3.90;1.48;;;13.20;40.90;;;;;;5096136;28;20031;-70
2022/04/09 10:52:15;;;;;;;2.40;1.48;;;13.30;40.20;;;;;;5095837;28;20027;-70
2022/04/09 10:55:01;;;;;;;5.68;1.63;;;13.40;40.60;;;;;;5096253;28;20035;-70
2022/04/09 10:57:27;;;;;;;2.40;1.40;;;13.40;39.50;;;;;;5095617;28;20035;-70
2022/04/09 10:59:59;;;;;;;4.68;1.60;;;13.30;39.30;;;;;;5097670;27;20020;-71
2022/04/09 11:02:29;;;;;;;4.43;1.70;;;13.20;38.00;;;;;;5134201;27;20031;-71
2022/04/09 11:04:55;;;;;;;2.63;1.27;;;13.10;38.80;;;;;;5115879;27;20119;-71
2022/04/09 11:07:23;;;;;;;3.67;1.52;;;13.10;39.00;;;;;;5116131;27;20114;-73
2022/04/09 11:10:00;;;;;;;2.97;1.27;;;13.00;38.80;;;;;;5115969;27;20364;-71
2022/04/09 11:12:30;;;;;;;4.45;1.50;;;13.00;39.00;;;;;;5134182;27;20031;-71
2022/04/09 11:15:09;;;;;;;2.30;1.20;;;13.00;39.30;;;;;;5115890;27;20054;-71
2022/04/09 11:17:43;;;;;;;1.77;1.08;;;13.10;39.20;;;;;;5134242;27;20104;-72
2022/04/09 11:20:11;;;;;;;7.05;1.58;;;13.10;39.00;;;;;;5134781;27;20026;-71
2022/04/09 11:22:39;;;;;;;3.08;1.25;;;13.30;40.40;;;;;;5134524;27;20031;-71
2022/04/09 11:25:09;;;;;;;4.15;0.98;;;13.30;39.40;;;;;;5133505;27;20023;-71
2022/04/09 11:27:35;;;;;;;4.18;1.10;;;13.40;39.10;;;;;;5134042;27;20059;-73
2022/04/09 11:30:03;;;;;;;3.10;1.27;;;13.40;38.90;;;;;;5134375;27;20038;-73
2022/04/09 11:32:32;;;;;;;2.05;0.80;;;13.30;38.30;;;;;;5108464;28;20031;-73
2022/04/09 11:34:59;;;;;;;4.80;1.33;;;13.40;38.10;;;;;;5098511;27;20035;-72
2022/04/09 11:37:29;;;;;;;6.85;1.58;;;13.40;38.90;;;;;;5134062;27;20023;-73
2022/04/09 11:39:56;;;;;;;6.20;1.17;;;13.40;39.30;;;;;;5105904;28;20039;-73
2022/04/09 11:42:22;;;;;;;8.27;1.42;;;13.40;37.80;;;;;;5095618;28;20451;-74
2022/04/09 11:44:48;;;;;;;3.67;1.38;;;13.30;38.70;;;;;;5113896;28;20051;-73
2022/04/09 11:47:22;;;;;;;1.92;1.00;;;13.30;39.10;;;;;;5095082;28;20115;-74
2022/04/09 11:49:48;;;;;;;4.10;1.65;;;13.20;39.20;;;;;;5113619;28;20027;-74
2022/04/09 11:52:25;;;;;;;3.60;0.90;;;13.30;39.90;;;;;;5113697;28;20390;-75
2022/04/09 11:54:51;;;;;;;6.25;1.23;;;13.30;40.20;;;;;;5095552;28;20131;-73
2022/04/09 11:57:17;;;;;;;4.70;1.27;;;13.40;40.60;;;;;;5117525;28;20027;-75
2022/04/09 11:59:49;;;;;;;4.45;1.50;;;13.50;40.50;;;;;;5117867;28;20027;-73
2022/04/09 12:02:26;;;;;;;5.07;1.50;;;13.60;40.90;;;;;;5120404;27;20028;-74
2022/04/09 12:04:56;;;;;;;2.88;1.48;;;13.60;40.80;;;;;;5098917;28;20031;-74
2022/04/09 12:07:25;;;;;;;3.10;0.85;;;13.70;40.80;;;;;;5099179;28;20042;-73
2022/04/09 12:09:54;;;;;;;3.65;1.15;;;13.80;40.70;;;;;;5098812;27;20474;-73
2022/04/09 12:12:22;;;;;;;3.85;1.35;;;13.80;40.40;;;;;;5098924;28;20100;-74
2022/04/09 12:14:57;;;;;;;2.88;1.20;;;13.80;39.70;;;;;;5117626;28;20031;-73
2022/04/09 12:17:34;;;;;;;2.75;1.00;;;13.90;39.70;;;;;;5117420;28;20019;-73
2022/04/09 12:20:20;;;;;;;7.05;1.42;;;14.00;39.60;;;;;;5103000;27;20033;-73
2022/04/09 12:22:55;;;;;;;4.97;1.58;;;14.10;38.60;;;;;;5137753;27;20024;-73
2022/04/09 12:25:38;;;;;;;5.30;1.08;;;14.20;37.50;;;;;;5138098;27;20047;-74
2022/04/09 12:28:05;;;;;;;5.43;1.50;;;14.40;38.30;;;;;;5119265;27;20019;-76
2022/04/09 12:30:42;;;;;;;9.20;1.75;;;14.40;37.80;;;;;;5137284;27;20470;-74
2022/04/09 12:33:12;;;;;;;5.28;1.85;;;14.50;37.90;;;;;;5107203;28;20036;-76
2022/04/09 12:35:42;;;;;;;2.28;1.17;;;14.50;38.00;;;;;;5109163;28;20039;-73
2022/04/09 12:38:07;;;;;;;3.90;1.35;;;14.50;38.70;;;;;;5117235;28;20031;-73
2022/04/09 12:40:33;;;;;;;5.57;1.65;;;14.40;39.60;;;;;;5112716;28;20108;-73
2022/04/09 12:43:01;;;;;;;2.30;1.13;;;14.40;39.50;;;;;;5098534;28;20035;-73
2022/04/09 12:45:28;;;;;;;2.38;1.25;;;14.30;39.60;;;;;;5098679;28;20038;-73
2022/04/09 12:48:00;;;;;;;4.88;1.50;;;14.30;40.30;;;;;;5116971;28;20080;-73